Time;durP1;ratioP1;P1;durP2;ratioP2;P2;SDS_P1;SDS_P2;PMS_P1;PMS_P2;Temp;Humidity;BMP_temperature;BMP_pressure;BME280_temperature;BME280_humidity;BME280_pressure;Samples;Min_cycle;Max_cycle;Signal;HPM_P1;HPM_P2
2022/10/04 00:01:59;;;;;;;;;;;;;;;15.27;53.57;100202.84;4267635;33;20011;-88
2022/10/04 00:04:27;;;;;;;;;;;;;;;15.35;52.79;100195.91;4254633;33;20005;-86
2022/10/04 00:06:54;;;;;;;;;;;;;;;14.97;54.37;100192.31;4241367;33;19989;-84
2022/10/04 00:09:22;;;;;;;;;;;;;;;15.03;54.28;100198.44;4230730;33;20030;-84
2022/10/04 00:11:50;;;;;;;;;;;;;;;14.99;54.32;100196.66;4253572;33;19985;-88
2022/10/04 00:14:18;;;;;;;;;;;;;;;14.91;54.53;100202.72;4248096;33;19989;-84
2022/10/04 00:16:45;;;;;;;;;;;;;;;14.94;54.71;100202.72;4252938;33;20036;-87
2022/10/04 00:19:18;;;;;;;;;;;;;;;14.85;54.91;100209.63;4256817;33;20001;-87
2022/10/04 00:21:57;;;;;;;;;;;;;;;14.98;54.70;100209.69;4244990;33;19982;-88
2022/10/04 00:24:25;;;;;;;;;;;;;;;14.98;54.76;100210.56;4240197;33;19989;-87
2022/10/04 00:26:51;;;;;;;;;;;;;;;15.03;54.35;100213.19;4241160;33;20336;-87
2022/10/04 00:29:25;;;;;;;;;;;;;;;14.88;54.83;100201.81;4251591;33;20142;-87
2022/10/04 00:32:07;;;;;;;;;;;;;;;14.84;54.78;100205.28;4257476;33;19978;-86
2022/10/04 00:34:34;;;;;;;;;;;;;;;14.84;55.31;100200.09;4249938;33;20042;-84
2022/10/04 00:37:01;;;;;;;;;;;;;;;15.18;53.98;100194.97;4255296;33;19993;-86
2022/10/04 00:39:31;;;;;;;;;;;;;;;14.96;55.04;100190.56;4254481;33;19986;-87
2022/10/04 00:42:02;;;;;;;;;;;;;;;15.06;55.17;100192.31;4254692;33;19969;-86
2022/10/04 00:44:41;;;;;;;;;;;;;;;15.25;54.32;100193.25;4253768;33;20008;-87
2022/10/04 00:47:23;;;;;;;;;;;;;;;15.16;54.39;100194.13;4254450;33;19978;-87
2022/10/04 00:49:51;;;;;;;;;;;;;;;15.17;54.45;100189.78;3822327;33;10012019;-85
2022/10/04 00:52:19;;;;;;;;;;;;;;;15.10;54.42;100183.66;4280072;33;20011;-88
2022/10/04 00:54:49;;;;;;;;;;;;;;;15.13;54.31;100188.91;4269084;33;19973;-86
2022/10/04 00:57:20;;;;;;;;;;;;;;;15.21;54.10;100187.16;4262984;33;19977;-87
2022/10/04 00:59:51;;;;;;;;;;;;;;;14.91;55.17;100187.06;4254379;33;20005;-86
2022/10/04 01:02:36;;;;;;;;;;;;;;;15.04;54.51;100183.66;4253807;33;19985;-84
2022/10/04 01:05:12;;;;;;;;;;;;;;;15.03;54.91;100184.53;4258383;33;19970;-86
2022/10/04 01:07:43;;;;;;;;;;;;;;;15.02;54.48;100180.16;4268268;33;19981;-88
2022/10/04 01:10:11;;;;;;;;;;;;;;;15.11;54.33;100185.41;4279615;33;19990;-87
2022/10/04 01:12:59;;;;;;;;;;;;;;;15.02;54.66;100180.16;4261402;33;20037;-88
2022/10/04 01:15:26;;;;;;;;;;;;;;;14.71;55.43;100190.47;4253746;33;19974;-88
2022/10/04 01:18:05;;;;;;;;;;;;;;;14.84;55.67;100187.06;4254384;33;20181;-87
2022/10/04 01:20:53;;;;;;;;;;;;;;;14.93;55.14;100180.13;4256340;33;19989;-88
2022/10/04 01:23:40;;;;;;;;;;;;;;;14.53;56.61;100175.59;4256577;33;19985;-88
2022/10/04 01:26:25;;;;;;;;;;;;;;;14.61;56.30;100173.03;4256606;33;20649;-88
2022/10/04 01:28:52;;;;;;;;;;;;;;;14.80;55.63;100169.63;4263244;33;19985;-87
2022/10/04 01:31:19;;;;;;;;;;;;;;;14.66;56.54;100179.13;4247727;33;20004;-86
2022/10/04 01:33:46;;;;;;;;;;;;;;;14.67;56.31;100175.66;4256794;33;19993;-86
2022/10/04 01:36:13;;;;;;;;;;;;;;;14.68;56.21;100182.63;4255056;33;19973;-87
2022/10/04 01:38:42;;;;;;;;;;;;;;;14.87;55.66;100176.63;4253305;33;20008;-90
2022/10/04 01:41:09;;;;;;;;;;;;;;;14.80;56.13;100179.19;4276425;33;19985;-88
2022/10/04 01:43:37;;;;;;;;;;;;;;;14.65;56.46;100174.81;4256570;33;20071;-87
2022/10/04 01:46:12;;;;;;;;;;;;;;;14.60;56.79;100173.91;4279355;33;20338;-84
2022/10/04 01:48:40;;;;;;;;;;;;;;;14.87;56.06;100176.63;4278822;33;19981;-88
2022/10/04 01:51:12;;;;;;;;;;;;;;;14.75;56.18;100191.34;4281197;33;20007;-89
2022/10/04 01:53:44;;;;;;;;;;;;;;;14.66;56.65;100186.97;4269398;33;19988;-85
2022/10/04 01:56:15;;;;;;;;;;;;;;;14.87;56.22;100192.28;4278623;33;19977;-83
2022/10/04 01:58:43;;;;;;;;;;;;;;;14.85;56.20;100194.00;4283249;33;20000;-88
2022/10/04 02:01:12;;;;;;;;;;;;;;;14.80;56.34;100190.47;4269683;33;20286;-88
2022/10/04 02:03:41;;;;;;;;;;;;;;;14.85;56.16;100188.78;4283090;33;19988;-86
2022/10/04 02:06:08;;;;;;;;;;;;;;;14.96;55.94;100185.34;4283101;33;19968;-88
2022/10/04 02:08:37;;;;;;;;;;;;;;;14.99;55.67;100180.13;4267460;33;20004;-88
2022/10/04 02:11:04;;;;;;;;;;;;;;;14.93;56.04;100180.97;4269682;33;19993;-87
2022/10/04 02:13:37;;;;;;;;;;;;;;;14.92;56.11;100186.19;4265500;33;19994;-88
2022/10/04 02:16:08;;;;;;;;;;;;;;;15.03;55.64;100184.53;4283001;33;19988;-89
2022/10/04 02:18:35;;;;;;;;;;;;;;;14.99;55.91;100187.97;4282104;33;20042;-89
2022/10/04 02:21:03;;;;;;;;;;;;;;;14.74;56.73;100190.47;4264027;33;20016;-87
2022/10/04 02:23:30;;;;;;;;;;;;;;;15.02;55.77;100191.44;4269717;33;19999;-88
2022/10/04 02:25:57;;;;;;;;;;;;;;;14.97;55.81;100187.09;4283225;33;19991;-88
2022/10/04 02:28:24;;;;;;;;;;;;;;;14.91;56.29;100193.16;4283574;33;20269;-89
2022/10/04 02:33:37;;;;;;;;;;;;;;;14.88;56.50;100194.00;4259098;33;19996;-87
2022/10/04 02:36:06;;;;;;;;;;;;;;;14.97;56.10;100193.19;4279299;33;19987;-89
2022/10/04 02:38:34;;;;;;;;;;;;;;;14.97;56.04;100192.31;4279181;33;19993;-88
2022/10/04 02:41:02;;;;;;;;;;;;;;;14.80;56.70;100195.69;4279337;33;19989;-89
2022/10/04 02:43:34;;;;;;;;;;;;;;;14.76;56.70;100199.16;4278998;33;20280;-87
2022/10/04 02:46:28;;;;;;;;;;;;;;;14.78;56.83;100202.66;4268159;33;19997;-87
2022/10/04 02:48:55;;;;;;;;;;;;;;;14.75;57.06;100187.00;4279646;33;20385;-89
2022/10/04 02:51:22;;;;;;;;;;;;;;;14.95;56.49;100194.91;4269298;33;19988;-89
2022/10/04 02:53:56;;;;;;;;;;;;;;;14.51;57.64;100197.28;4282042;33;19981;-88
2022/10/04 02:56:29;;;;;;;;;;;;;;;14.73;56.90;100196.53;4262047;33;20685;-89
2022/10/04 02:58:59;;;;;;;;;;;;;;;14.84;56.71;100197.47;4268541;33;20360;-89
2022/10/04 03:01:27;;;;;;;;;;;;;;;14.85;56.87;100193.13;4264180;33;19985;-87
2022/10/04 03:03:55;;;;;;;;;;;;;;;14.93;56.61;100191.41;4282478;33;19990;-87
2022/10/04 03:06:23;;;;;;;;;;;;;;;14.91;56.66;100187.94;4282678;33;19999;-88
2022/10/04 03:08:51;;;;;;;;;;;;;;;14.76;56.98;100188.75;4272659;33;20041;-86
2022/10/04 03:11:19;;;;;;;;;;;;;;;14.77;56.99;100190.50;4261488;33;20008;-88
2022/10/04 03:13:47;;;;;;;;;;;;;;;14.70;57.47;100198.25;4272976;33;19981;-85
2022/10/04 03:16:14;;;;;;;;;;;;;;;14.86;56.87;100190.50;4282493;33;19992;-88
2022/10/04 03:18:41;;;;;;;;;;;;;;;14.88;56.91;100194.00;4270257;33;20689;-88
2022/10/04 03:21:08;;;;;;;;;;;;;;;14.72;57.51;100186.13;4264466;33;19977;-86
2022/10/04 03:23:35;;;;;;;;;;;;;;;14.48;58.00;100197.25;4282458;33;19997;-89
2022/10/04 03:26:03;;;;;;;;;;;;;;;14.72;57.57;100187.00;4269209;33;20409;-88
2022/10/04 03:28:29;;;;;;;;;;;;;;;14.59;58.05;100185.19;3974226;33;10016722;-88
2022/10/04 03:30:56;;;;;;;;;;;;;;;14.57;58.08;100198.19;4268589;33;20453;-88
2022/10/04 03:33:24;;;;;;;;;;;;;;;14.66;57.90;100197.38;4281388;33;20011;-88
2022/10/04 03:35:51;;;;;;;;;;;;;;;14.67;57.99;100199.13;4281271;33;19981;-86
2022/10/04 03:38:18;;;;;;;;;;;;;;;14.62;57.89;100200.84;4274971;33;19981;-88
2022/10/04 03:40:51;;;;;;;;;;;;;;;14.84;57.22;100207.03;4269156;33;19985;-84
2022/10/04 03:43:19;;;;;;;;;;;;;;;14.68;57.69;100200.88;4264643;33;20095;-89
2022/10/04 03:45:46;;;;;;;;;;;;;;;14.98;56.36;100204.47;4281810;33;20047;-89
2022/10/04 03:48:17;;;;;;;;;;;;;;;14.71;57.22;100206.09;4260122;33;19978;-86
2022/10/04 03:50:47;;;;;;;;;;;;;;;14.63;57.62;100200.84;4261897;33;20291;-86
2022/10/04 03:53:17;;;;;;;;;;;;;;;14.70;57.48;100199.13;4278451;33;19984;-88
2022/10/04 03:55:43;;;;;;;;;;;;;;;14.66;57.66;100199.97;4274533;33;19985;-88
2022/10/04 03:58:11;;;;;;;;;;;;;;;14.72;57.16;100207.84;4268765;33;19992;-86
2022/10/04 04:00:39;;;;;;;;;;;;;;;14.72;57.45;100196.56;4270648;33;20461;-88
2022/10/04 04:03:06;;;;;;;;;;;;;;;14.62;57.65;100200.84;4270524;33;19993;-86
2022/10/04 04:05:34;;;;;;;;;;;;;;;14.55;58.00;100204.25;4262216;33;20062;-88
2022/10/04 04:08:22;;;;;;;;;;;;;;;14.66;57.76;100197.38;4282133;33;20403;-87
2022/10/04 04:10:50;;;;;;;;;;;;;;;14.64;57.79;100197.38;4283861;33;19996;-88
2022/10/04 04:13:22;;;;;;;;;;;;;;;14.55;58.06;100199.94;4282448;33;19989;-87
2022/10/04 04:15:49;;;;;;;;;;;;;;;14.59;58.03;100191.28;4283999;33;20003;-85
2022/10/04 04:18:23;;;;;;;;;;;;;;;14.66;57.78;100192.16;4282351;33;19976;-87
2022/10/04 04:20:50;;;;;;;;;;;;;;;14.71;57.47;100206.09;4282583;33;19981;-85
2022/10/04 04:23:27;;;;;;;;;;;;;;;14.49;58.42;100204.22;4257568;33;19985;-84
2022/10/04 04:25:55;;;;;;;;;;;;;;;14.09;59.53;100211.72;4269401;33;19999;-88
2022/10/04 04:28:40;;;;;;;;;;;;;;;14.57;58.20;100207.75;4269585;33;19992;-85
2022/10/04 04:31:09;;;;;;;;;;;;;;;14.60;58.08;100212.97;4274620;33;19988;-87
2022/10/04 04:33:43;;;;;;;;;;;;;;;14.58;58.32;100220.81;4277063;33;20009;-85
2022/10/04 04:36:11;;;;;;;;;;;;;;;14.63;57.99;100224.28;4270009;33;20000;-88
2022/10/04 04:41:23;;;;;;;;;;;;;;;14.64;58.12;100235.56;4282582;33;19977;-84
2022/10/04 04:43:50;;;;;;;;;;;;;;;14.51;58.32;100228.53;4274884;33;19984;-84
2022/10/04 04:46:17;;;;;;;;;;;;;;;14.65;58.27;100232.12;4268574;33;20021;-80
2022/10/04 04:48:59;;;;;;;;;;;;;;;14.71;58.10;100232.16;4268410;33;20007;-84
2022/10/04 04:51:26;;;;;;;;;;;;;;;14.72;57.94;100223.47;4268484;33;19999;-84
2022/10/04 04:53:53;;;;;;;;;;;;;;;14.65;57.80;100227.78;4269398;33;20036;-84
2022/10/04 04:56:22;;;;;;;;;;;;;;;14.53;58.44;100232.03;4275298;33;19985;-82
2022/10/04 04:58:49;;;;;;;;;;;;;;;14.58;58.27;100240.75;4277385;33;20003;-81
2022/10/04 05:01:33;;;;;;;;;;;;;;;14.65;58.08;100243.41;4278262;33;19997;-82
2022/10/04 05:04:03;;;;;;;;;;;;;;;14.61;58.43;100240.75;4269955;33;19984;-82
2022/10/04 05:06:31;;;;;;;;;;;;;;;14.70;57.90;100246.03;4266809;33;20009;-82
2022/10/04 05:08:58;;;;;;;;;;;;;;;14.65;58.40;100248.62;4278130;33;19974;-82
2022/10/04 05:11:26;;;;;;;;;;;;;;;14.56;58.84;100253.78;4280433;33;19985;-81
2022/10/04 05:13:55;;;;;;;;;;;;;;;14.64;58.77;100251.22;4281036;33;20342;-80
2022/10/04 05:16:27;;;;;;;;;;;;;;;14.53;59.36;100258.09;4280712;33;20000;-80
2022/10/04 05:19:01;;;;;;;;;;;;;;;14.73;58.86;100261.69;4262613;33;20045;-80
2022/10/04 05:21:28;;;;;;;;;;;;;;;14.87;58.22;100265.25;4274221;33;20053;-80
2022/10/04 05:23:56;;;;;;;;;;;;;;;14.86;58.29;100263.50;4269580;33;20265;-81
2022/10/04 05:26:26;;;;;;;;;;;;;;;14.80;58.81;100263.47;4251442;33;19993;-81
2022/10/04 05:28:54;;;;;;;;;;;;;;;14.49;59.76;100272.81;4269944;33;20013;-82
2022/10/04 05:31:31;;;;;;;;;;;;;;;14.64;59.68;100266.84;4270309;33;20761;-82
2022/10/04 05:33:58;;;;;;;;;;;;;;;14.93;59.11;100264.41;4264725;33;20083;-82
2022/10/04 05:36:35;;;;;;;;;;;;;;;14.87;59.09;100280.91;4260590;33;20052;-82
2022/10/04 05:39:20;;;;;;;;;;;;;;;14.85;59.22;100287.81;4265120;33;19995;-81
2022/10/04 05:42:01;;;;;;;;;;;;;;;14.74;59.84;100279.09;4278259;33;20004;-83
2022/10/04 05:44:30;;;;;;;;;;;;;;;14.88;59.63;100284.37;4266422;33;20016;-81
2022/10/04 05:47:00;;;;;;;;;;;;;;;14.84;59.52;100285.22;4279942;33;19991;-82
2022/10/04 05:49:31;;;;;;;;;;;;;;;15.02;59.18;100285.31;4265356;33;19977;-84
2022/10/04 05:52:02;;;;;;;;;;;;;;;14.92;59.48;100277.44;4279602;33;20287;-81
2022/10/04 05:54:31;;;;;;;;;;;;;;;15.01;59.41;100277.50;4265075;33;20005;-82
2022/10/04 05:57:18;;;;;;;;;;;;;;;14.94;59.89;100286.16;4263497;33;20098;-81
2022/10/04 05:59:45;;;;;;;;;;;;;;;14.99;59.89;100289.62;4279804;33;19999;-81
2022/10/04 06:02:30;;;;;;;;;;;;;;;14.93;60.51;100290.47;4276885;33;19981;-80
2022/10/04 06:05:16;;;;;;;;;;;;;;;15.20;59.52;100297.56;4269778;33;20009;-80
2022/10/04 06:07:49;;;;;;;;;;;;;;;15.26;59.47;100304.56;4279407;33;20012;-81
2022/10/04 06:10:34;;;;;;;;;;;;;;;15.20;59.96;100305.41;4279714;33;19989;-82
2022/10/04 06:13:03;;;;;;;;;;;;;;;15.25;60.05;100308.00;4270612;33;19985;-83
2022/10/04 06:15:35;;;;;;;;;;;;;;;15.32;60.18;100304.59;4255862;33;20000;-81
2022/10/04 06:18:04;;;;;;;;;;;;;;;15.56;59.63;100309.00;4256229;33;20282;-82
2022/10/04 06:20:34;;;;;;;;;;;;;;;15.33;60.46;100308.94;4272572;33;19992;-82
2022/10/04 06:23:02;;;;;;;;;;;;;;;15.38;60.61;100308.94;4279777;33;20007;-82
2022/10/04 06:25:37;;;;;;;;;;;;;;;15.23;61.00;100305.41;4274672;33;20016;-82
2022/10/04 06:28:04;;;;;;;;;;;;;;;15.52;59.93;100312.47;4265576;33;19998;-82
2022/10/04 06:30:35;;;;;;;;;;;;;;;15.46;59.95;100322.88;4282650;33;19977;-82
2022/10/04 06:33:31;;;;;;;;;;;;;;;15.39;60.96;100321.13;4278969;33;20076;-81
2022/10/04 06:36:17;;;;;;;;;;;;;;;15.68;59.78;100319.53;4281793;33;20330;-84
2022/10/04 06:38:57;;;;;;;;;;;;;;;15.58;60.38;100322.94;4296532;33;20807;-81
2022/10/04 06:41:39;;;;;;;;;;;;;;;15.72;59.93;100326.47;4282175;33;20270;-81
2022/10/04 06:44:15;;;;;;;;;;;;;;;15.79;60.10;100317.81;4284470;33;20016;-82
2022/10/04 06:47:02;;;;;;;;;;;;;;;15.83;59.99;100323.06;4269229;33;19981;-83
2022/10/04 06:49:38;;;;;;;;;;;;;;;15.67;61.39;100338.66;4264213;33;20025;-82
2022/10/04 06:52:12;;;;;;;;;;;;;;;16.03;59.67;100331.78;4281334;33;19981;-82
2022/10/04 06:54:45;;;;;;;;;;;;;;;16.20;59.35;100344.88;4116443;33;5001034;-83
2022/10/04 06:57:25;;;;;;;;;;;;;;;16.34;59.10;100335.31;4281214;33;19981;-82
2022/10/04 06:59:51;;;;;;;;;;;;;;;16.26;59.51;100335.28;4275150;33;20013;-87
2022/10/04 07:02:24;;;;;;;;;;;;;;;16.19;59.19;100338.78;4285654;33;20037;-84
2022/10/04 07:04:55;;;;;;;;;;;;;;;16.30;58.78;100335.28;4287543;33;20003;-84
2022/10/04 07:07:36;;;;;;;;;;;;;;;16.27;59.29;100342.28;4278904;33;20051;-85
2022/10/04 07:10:10;;;;;;;;;;;;;;;16.07;59.71;100343.97;4275308;33;20008;-83
2022/10/04 07:12:38;;;;;;;;;;;;;;;16.23;58.67;100345.72;4286277;33;19996;-84
2022/10/04 07:15:07;;;;;;;;;;;;;;;16.04;60.09;100347.44;4288961;33;19981;-83
2022/10/04 07:17:38;;;;;;;;;;;;;;;16.36;60.11;100351.84;4277288;33;19996;-85
2022/10/04 07:20:05;;;;;;;;;;;;;;;16.56;58.86;100345.75;4275088;33;19992;-84
2022/10/04 07:22:49;;;;;;;;;;;;;;;16.56;59.58;100349.25;4283385;33;20412;-82
2022/10/04 07:25:29;;;;;;;;;;;;;;;16.59;58.78;100348.34;4273011;33;19988;-84
2022/10/04 07:30:58;;;;;;;;;;;;;;;17.02;57.73;100349.22;4266228;33;19989;-83
2022/10/04 07:33:26;;;;;;;;;;;;;;;17.10;58.19;100357.94;4269079;33;19977;-84
2022/10/04 07:35:55;;;;;;;;;;;;;;;16.74;59.72;100354.44;4275205;33;20007;-82
2022/10/04 07:38:25;;;;;;;;;;;;;;;17.41;57.19;100352.59;4267563;33;19993;-84
2022/10/04 07:41:07;;;;;;;;;;;;;;;17.78;56.21;100342.00;4264681;33;19985;-83
2022/10/04 07:43:40;;;;;;;;;;;;;;;17.84;57.13;100344.59;4256018;33;19995;-83
2022/10/04 07:46:12;;;;;;;;;;;;;;;18.48;53.63;100341.53;4269502;33;19992;-82
2022/10/04 07:48:39;;;;;;;;;;;;;;;18.69;52.93;100344.84;4249307;33;919989;-84
2022/10/04 07:51:11;;;;;;;;;;;;;;;18.83;51.54;100348.25;4265979;33;19999;-84
2022/10/04 07:53:54;;;;;;;;;;;;;;;18.99;51.25;100349.84;4261281;33;19981;-82
2022/10/04 07:56:30;;;;;;;;;;;;;;;19.22;51.78;100361.84;4264505;33;20007;-82
2022/10/04 07:59:16;;;;;;;;;;;;;;;19.18;51.82;100349.66;4278576;33;20003;-82
2022/10/04 08:01:43;;;;;;;;;;;;;;;19.49;49.63;100345.75;4265741;33;20488;-84
2022/10/04 08:04:11;;;;;;;;;;;;;;;19.62;50.18;100350.84;4278622;33;19984;-84
2022/10/04 08:06:42;;;;;;;;;;;;;;;19.79;50.34;100354.19;4278295;33;19995;-81
2022/10/04 08:09:10;;;;;;;;;;;;;;;19.63;49.41;100348.22;4244642;33;20007;-82
2022/10/04 08:11:42;;;;;;;;;;;;;;;20.06;47.78;100358.16;4253781;33;19986;-84
2022/10/04 08:14:21;;;;;;;;;;;;;;;20.08;48.83;100360.78;4265008;33;20683;-84
2022/10/04 08:17:06;;;;;;;;;;;;;;;19.96;49.99;100357.44;4264865;33;20016;-85
2022/10/04 08:19:49;;;;;;;;;;;;;;;20.31;46.68;100358.66;4261036;33;20829;-84
2022/10/04 08:22:18;;;;;;;;;;;;;;;20.50;46.78;100366.28;4264560;33;19981;-84
2022/10/04 08:24:48;;;;;;;;;;;;;;;20.20;47.10;100371.12;4250723;33;19981;-82
2022/10/04 08:27:19;;;;;;;;;;;;;;;20.04;47.76;100380.09;4265170;33;20015;-82
2022/10/04 08:29:51;;;;;;;;;;;;;;;19.91;47.75;100390.81;4265338;33;19996;-82
2022/10/04 08:32:33;;;;;;;;;;;;;;;19.63;46.85;100384.12;4241468;33;20045;-84
2022/10/04 08:35:19;;;;;;;;;;;;;;;19.74;47.69;100393.63;4258812;33;20369;-85
2022/10/04 08:38:07;;;;;;;;;;;;;;;19.31;49.86;100390.63;4264193;33;19995;-86
2022/10/04 08:40:42;;;;;;;;;;;;;;;20.18;47.14;100383.41;4245167;33;20324;-83
2022/10/04 08:43:22;;;;;;;;;;;;;;;20.60;47.55;100381.03;4260305;33;20000;-83
2022/10/04 08:45:55;;;;;;;;;;;;;;;20.47;46.15;100392.63;4252549;33;19997;-84
2022/10/04 08:48:23;;;;;;;;;;;;;;;20.46;45.98;100389.13;4251903;33;20007;-86
2022/10/04 08:50:57;;;;;;;;;;;;;;;20.61;45.74;100385.41;4241679;33;19993;-84
2022/10/04 08:53:30;;;;;;;;;;;;;;;20.40;47.05;100390.09;4262859;33;19993;-85
2022/10/04 08:56:00;;;;;;;;;;;;;;;20.55;45.42;100382.87;4259327;33;19989;-88
2022/10/04 08:58:39;;;;;;;;;;;;;;;20.35;45.93;100393.66;4248516;33;20003;-84
2022/10/04 09:01:09;;;;;;;;;;;;;;;20.18;46.34;100383.41;4244694;33;22165;-85
2022/10/04 09:04:00;;;;;;;;;;;;;;;20.46;46.07;100388.25;4264151;33;19989;-85
2022/10/04 09:06:39;;;;;;;;;;;;;;;20.58;44.58;100395.97;4280707;33;19977;-84
2022/10/04 09:09:19;;;;;;;;;;;;;;;20.10;45.27;100398.41;4281202;33;19985;-84
2022/10/04 09:12:05;;;;;;;;;;;;;;;20.01;45.40;100401.19;4280695;33;20032;-85
2022/10/04 09:14:37;;;;;;;;;;;;;;;20.00;45.84;100399.44;4252546;33;20011;-84
2022/10/04 09:17:20;;;;;;;;;;;;;;;19.90;45.53;100394.28;4248989;33;19999;-84
2022/10/04 09:19:49;;;;;;;;;;;;;;;19.69;46.81;100399.84;4250561;33;19985;-82
2022/10/04 09:22:41;;;;;;;;;;;;;;;19.49;46.99;100403.50;4265686;33;19996;-85
2022/10/04 09:25:12;;;;;;;;;;;;;;;19.74;46.31;100398.88;4253165;33;19996;-84
2022/10/04 09:27:46;;;;;;;;;;;;;;;19.61;47.43;100380.63;4241630;33;19974;-82
2022/10/04 09:30:22;;;;;;;;;;;;;;;20.20;45.67;100386.91;4239527;33;20008;-85
2022/10/04 09:32:52;;;;;;;;;;;;;;;20.14;45.08;100386.97;4261279;33;20008;-83
2022/10/04 09:35:33;;;;;;;;;;;;;;;20.24;44.74;100398.22;4273651;33;20033;-82
2022/10/04 09:38:22;;;;;;;;;;;;;;;19.95;45.51;100391.62;4276341;33;20004;-83
2022/10/04 09:41:08;;;;;;;;;;;;;;;19.71;46.86;100382.28;4268235;33;19981;-84
2022/10/04 09:43:47;;;;;;;;;;;;;;;19.51;45.93;100386.00;4268232;33;19992;-82
2022/10/04 09:46:20;;;;;;;;;;;;;;;19.34;47.01;100387.09;4269046;33;20312;-84
2022/10/04 09:48:56;;;;;;;;;;;;;;;19.31;47.59;100388.00;4246531;33;20009;-83
2022/10/04 09:51:41;;;;;;;;;;;;;;;19.28;48.94;100393.28;4280247;33;20007;-84
2022/10/04 09:54:14;;;;;;;;;;;;;;;19.43;47.19;100401.00;4282044;33;19985;-85
2022/10/04 09:56:47;;;;;;;;;;;;;;;19.44;47.05;100405.34;4267776;33;19985;-85
2022/10/04 09:59:35;;;;;;;;;;;;;;;19.33;48.21;100407.19;4273455;33;19985;-84
2022/10/04 10:02:08;;;;;;;;;;;;;;;19.46;46.69;100408.84;4267406;33;19989;-85
2022/10/04 10:04:51;;;;;;;;;;;;;;;19.19;47.16;100409.97;4267240;33;20007;-83
2022/10/04 10:07:24;;;;;;;;;;;;;;;18.85;49.58;100412.03;4254802;33;19989;-83
2022/10/04 10:15:58;;;;;;;;;;;;;;;19.25;48.25;100412.53;4266969;33;19985;-83
2022/10/04 10:18:31;;;;;;;;;;;;;;;19.21;48.85;100416.09;4261471;33;19994;-83
2022/10/04 10:21:07;;;;;;;;;;;;;;;19.19;48.77;100420.47;4266628;33;19981;-83
2022/10/04 10:23:37;;;;;;;;;;;;;;;18.91;49.78;100419.84;4249907;33;20096;-83
2022/10/04 10:26:23;;;;;;;;;;;;;;;18.99;48.68;100423.31;4274280;33;20078;-83
2022/10/04 10:29:02;;;;;;;;;;;;;;;19.16;46.14;100424.88;4280967;33;20085;-83
2022/10/04 10:31:34;;;;;;;;;;;;;;;18.83;46.30;100431.31;4270301;33;19988;-83
2022/10/04 10:34:20;;;;;;;;;;;;;;;18.91;46.40;100429.50;4281600;33;20032;-83
2022/10/04 10:36:47;;;;;;;;;;;;;;;18.96;46.12;100432.97;4259363;33;20028;-84
2022/10/04 10:39:33;;;;;;;;;;;;;;;18.59;47.85;100438.44;4252950;33;19989;-83
2022/10/04 10:42:13;;;;;;;;;;;;;;;18.63;47.80;100434.03;4266563;33;19996;-83
2022/10/04 10:44:56;;;;;;;;;;;;;;;18.52;47.17;100432.38;4251051;33;20000;-83
2022/10/04 10:47:29;;;;;;;;;;;;;;;18.66;46.75;100440.13;4252175;33;19990;-83
2022/10/04 10:50:05;;;;;;;;;;;;;;;18.65;46.06;100427.06;4267405;33;19998;-82
2022/10/04 10:52:44;;;;;;;;;;;;;;;18.63;46.67;100434.91;4265247;33;19996;-83
2022/10/04 10:55:18;;;;;;;;;;;;;;;18.52;47.77;100436.75;4265059;33;19993;-83
2022/10/04 10:57:52;;;;;;;;;;;;;;;18.62;50.04;100427.06;4253016;33;20057;-83
2022/10/04 11:00:34;;;;;;;;;;;;;;;19.08;47.01;100424.09;4266833;33;20075;-83
2022/10/04 11:03:07;;;;;;;;;;;;;;;19.24;46.65;100423.94;4267554;33;19973;-82
2022/10/04 11:06:06;;;;;;;;;;;;;;;19.43;46.23;100428.97;4267005;33;20398;-82
2022/10/04 11:09:06;;;;;;;;;;;;;;;19.46;46.11;100434.19;4264415;33;19989;-82
2022/10/04 11:11:37;;;;;;;;;;;;;;;19.63;46.62;100431.41;4256697;33;20831;-82
2022/10/04 11:14:23;;;;;;;;;;;;;;;19.84;45.87;100420.66;4281478;33;19993;-82
2022/10/04 11:17:02;;;;;;;;;;;;;;;19.76;47.66;100427.78;4280479;33;19988;-82
2022/10/04 11:19:29;;;;;;;;;;;;;;;20.04;45.31;100416.87;4245130;33;19993;-83
2022/10/04 11:22:06;;;;;;;;;;;;;;;20.14;45.39;100418.53;4270184;33;19997;-82
2022/10/04 11:24:42;;;;;;;;;;;;;;;19.91;45.68;100427.59;4266615;33;20793;-82
2022/10/04 11:27:27;;;;;;;;;;;;;;;20.00;45.98;100430.97;4257948;33;19981;-83
2022/10/04 11:29:54;;;;;;;;;;;;;;;19.66;47.85;100426.16;4265755;33;20037;-83
2022/10/04 11:32:39;;;;;;;;;;;;;;;20.04;46.84;100422.16;4273611;33;19999;-83
2022/10/04 11:35:06;;;;;;;;;;;;;;;20.18;46.79;100425.47;4260189;33;20007;-82
2022/10/04 11:37:42;;;;;;;;;;;;;;;20.36;45.73;100409.44;4271280;33;20012;-83
2022/10/04 11:40:09;;;;;;;;;;;;;;;20.23;46.79;100413.16;4272618;33;19977;-83
2022/10/04 11:42:55;;;;;;;;;;;;;;;20.18;49.70;100420.22;4272139;33;20003;-83
2022/10/04 11:45:40;;;;;;;;;;;;;;;20.49;45.70;100425.03;4247298;33;20005;-83
2022/10/04 11:48:26;;;;;;;;;;;;;;;20.41;48.87;100418.09;4248534;33;19985;-81
2022/10/04 11:50:56;;;;;;;;;;;;;;;20.69;44.71;100422.97;4250904;33;20000;-81
2022/10/04 11:53:32;;;;;;;;;;;;;;;20.38;46.32;100418.16;4254815;33;20043;-82
2022/10/04 11:56:18;;;;;;;;;;;;;;;20.25;44.82;100419.22;4259601;33;19985;-82
2022/10/04 11:59:05;;;;;;;;;;;;;;;20.14;46.61;100426.41;4254933;33;20323;-81
2022/10/04 12:01:45;;;;;;;;;;;;;;;19.93;45.78;100425.78;4233771;33;20008;-82
2022/10/04 12:04:31;;;;;;;;;;;;;;;20.09;44.79;100430.84;4259479;33;20847;-82
2022/10/04 12:07:06;;;;;;;;;;;;;;;19.94;45.29;100427.56;4267862;33;19977;-83
2022/10/04 12:09:45;;;;;;;;;;;;;;;19.73;45.92;100438.31;4267510;33;19997;-82
2022/10/04 12:12:36;;;;;;;;;;;;;;;19.88;44.90;100432.88;4272077;33;19996;-81
2022/10/04 12:15:26;;;;;;;;;;;;;;;19.89;44.36;100434.59;4270091;33;20627;-80
2022/10/04 12:18:13;;;;;;;;;;;;;;;19.70;45.45;100433.09;4274572;33;20061;-82
2022/10/04 12:20:52;;;;;;;;;;;;;;;19.66;44.43;100436.66;4270952;33;19988;-82
2022/10/04 12:23:47;;;;;;;;;;;;;;;19.07;47.15;100445.97;4273138;33;19993;-83
2022/10/04 12:26:24;;;;;;;;;;;;;;;18.95;47.99;100437.34;4260229;33;20024;-82
2022/10/04 12:29:01;;;;;;;;;;;;;;;18.97;48.24;100448.66;4271363;33;20008;-82
2022/10/04 12:31:31;;;;;;;;;;;;;;;19.16;48.08;100451.13;4272008;33;20000;-85
2022/10/04 12:34:15;;;;;;;;;;;;;;;19.07;48.92;100445.97;4256200;33;20004;-82
2022/10/04 12:37:00;;;;;;;;;;;;;;;19.29;48.41;100447.50;4258549;33;19985;-81
2022/10/04 12:39:30;;;;;;;;;;;;;;;18.88;50.83;100451.38;4268014;33;20598;-82
2022/10/04 12:42:12;;;;;;;;;;;;;;;18.97;50.81;100438.19;4271530;33;19989;-83
2022/10/04 12:44:53;;;;;;;;;;;;;;;19.07;51.79;100445.97;4272395;33;19985;-82
2022/10/04 12:47:36;;;;;;;;;;;;;;;19.27;50.48;100444.00;4273099;33;19985;-82
2022/10/04 12:50:25;;;;;;;;;;;;;;;19.00;53.01;100439.91;4273440;33;20954;-81
2022/10/04 12:52:56;;;;;;;;;;;;;;;19.03;52.37;100443.38;4273987;33;20420;-81
2022/10/04 12:55:44;;;;;;;;;;;;;;;19.55;51.66;100449.00;4273977;33;20021;-81
2022/10/04 12:58:25;;;;;;;;;;;;;;;19.29;53.14;100442.25;4259902;33;19989;-82
2022/10/04 13:00:58;;;;;;;;;;;;;;;19.60;50.19;100447.19;4274346;33;19985;-83
2022/10/04 13:03:40;;;;;;;;;;;;;;;19.60;50.47;100439.31;4254381;33;19989;-84
2022/10/04 13:06:08;;;;;;;;;;;;;;;19.71;49.78;100440.06;4261062;33;20000;-84
2022/10/04 13:08:57;;;;;;;;;;;;;;;19.85;48.38;100438.16;4258097;33;20327;-82
2022/10/04 13:11:23;;;;;;;;;;;;;;;19.85;48.33;100434.69;4259725;33;19992;-82
2022/10/04 13:14:13;;;;;;;;;;;;;;;19.81;48.32;100436.44;4259902;33;19986;-82
2022/10/04 13:16:50;;;;;;;;;;;;;;;20.07;47.21;100427.37;4261494;33;19980;-85
2022/10/04 13:19:48;;;;;;;;;;;;;;;19.98;47.25;100429.25;4259263;33;20005;-83
2022/10/04 13:22:22;;;;;;;;;;;;;;;20.15;46.58;100430.78;4261018;33;19988;-85
2022/10/04 13:25:13;;;;;;;;;;;;;;;20.20;46.05;100428.97;4271271;33;19992;-84
2022/10/04 13:27:56;;;;;;;;;;;;;;;20.06;44.97;100428.25;4246939;33;20019;-82